Time;durP1;ratioP1;P1;durP2;ratioP2;P2;SDS_P1;SDS_P2;PMS_P1;PMS_P2;Temp;Humidity;BMP_temperature;BMP_pressure;BME280_temperature;BME280_humidity;BME280_pressure;Samples;Min_cycle;Max_cycle;Signal;HPM_P1;HPM_P2
2020/12/17 00:00:40;;;;;;;18.13;14.07;;;;;;;8.41;72.00;96887.97;5036261;28;20241;-76
2020/12/17 00:03:05;;;;;;;18.13;14.10;;;;;;;8.30;72.48;96888.19;5032195;28;20452;-75
2020/12/17 00:05:31;;;;;;;17.13;13.50;;;;;;;8.24;72.57;96886.13;5053591;28;20207;-74
2020/12/17 00:07:57;;;;;;;19.63;14.33;;;;;;;8.29;72.55;96886.53;5052169;28;20281;-75
2020/12/17 00:10:23;;;;;;;17.23;13.80;;;;;;;8.36;72.40;96895.41;5052676;28;20207;-76
2020/12/17 00:12:49;;;;;;;20.47;13.00;;;;;;;8.39;71.75;96884.69;5052624;28;20417;-75
2020/12/17 00:15:16;;;;;;;17.47;13.67;;;;;;;8.45;72.17;96889.31;5111364;28;20478;-75
2020/12/17 00:17:51;;;;;;;17.60;14.40;;;;;;;8.45;71.93;96878.88;5076029;28;20181;-75
2020/12/17 00:20:22;;;;;;;14.87;12.90;;;;;;;8.43;72.04;96873.00;5097797;28;20415;-75
2020/12/17 00:22:48;;;;;;;18.57;13.80;;;;;;;8.51;71.67;96868.84;5097815;28;20543;-75
2020/12/17 00:25:17;;;;;;;17.20;13.60;;;;;;;8.47;72.14;96878.75;5080657;28;20450;-75
2020/12/17 00:27:45;;;;;;;16.47;12.50;;;;;;;8.40;71.93;96870.66;5115223;28;20505;-75
2020/12/17 00:30:13;;;;;;;14.93;12.30;;;;;;;8.51;71.36;96867.03;5099198;28;20501;-75
2020/12/17 00:32:40;;;;;;;17.60;13.23;;;;;;;8.53;71.44;96862.50;5081672;28;20497;-75
2020/12/17 00:35:19;;;;;;;14.77;12.17;;;;;;;8.52;71.84;96866.06;5116036;28;20484;-74
2020/12/17 00:37:45;;;;;;;18.03;12.80;;;;;;;8.40;71.50;96870.66;5088924;28;20957;-76
2020/12/17 00:40:13;;;;;;;18.87;12.83;;;;;;;8.47;71.57;96868.28;5115840;28;20415;-73
2020/12/17 00:42:40;;;;;;;14.67;11.67;;;;;;;8.42;71.22;96875.72;5063817;28;20331;-75
2020/12/17 00:45:06;;;;;;;14.83;11.80;;;;;;;8.42;71.86;96868.72;5096053;28;20515;-75
2020/12/17 00:47:32;;;;;;;14.43;11.70;;;;;;;8.46;71.08;96872.69;5093903;28;20437;-74
2020/12/17 00:49:58;;;;;;;13.50;11.20;;;;;;;8.47;70.99;96873.50;5114823;28;20860;-75
2020/12/17 00:52:24;;;;;;;14.90;11.80;;;;;;;8.44;71.29;96872.00;5096453;28;20285;-74
2020/12/17 00:54:50;;;;;;;17.47;12.80;;;;;;;8.37;70.99;96870.94;5096823;28;20254;-75
2020/12/17 00:57:16;;;;;;;14.97;11.70;;;;;;;8.37;71.23;96876.19;5096854;28;20670;-74
2020/12/17 00:59:42;;;;;;;14.83;11.57;;;;;;;8.39;70.86;96884.69;5115863;28;20487;-74
2020/12/17 01:02:08;;;;;;;14.07;11.30;;;;;;;8.37;71.07;96886.63;5113952;28;20476;-74
2020/12/17 01:04:33;;;;;;;16.13;12.63;;;;;;;8.33;70.87;96877.44;5115727;28;20235;-74
2020/12/17 01:06:59;;;;;;;13.37;11.00;;;;;;;8.27;70.94;96878.03;5105131;28;20177;-75
2020/12/17 01:09:25;;;;;;;14.80;11.53;;;;;;;8.25;70.91;96883.38;5114656;28;20430;-75
2020/12/17 01:11:51;;;;;;;13.43;11.73;;;;;;;8.19;71.09;96877.94;5094996;28;20181;-76
2020/12/17 01:14:17;;;;;;;14.63;11.80;;;;;;;8.25;70.66;96878.16;5096929;28;20804;-75
2020/12/17 01:16:48;;;;;;;14.10;11.60;;;;;;;8.23;71.16;96880.13;5109430;28;20192;-73
2020/12/17 01:19:14;;;;;;;15.03;12.30;;;;;;;8.19;71.03;96880.56;5081797;28;20203;-74
2020/12/17 01:21:40;;;;;;;13.83;11.80;;;;;;;8.19;70.57;96875.34;5113587;28;20415;-74
2020/12/17 01:24:06;;;;;;;15.03;11.70;;;;;;;8.08;70.94;96878.94;5113842;28;20201;-75
2020/12/17 01:26:31;;;;;;;13.33;11.00;;;;;;;8.06;71.45;96878.25;5114958;28;20310;-75
2020/12/17 01:28:57;;;;;;;14.13;11.23;;;;;;;8.08;71.08;96881.56;5115832;28;20434;-74
2020/12/17 01:31:23;;;;;;;13.30;10.90;;;;;;;8.10;70.67;96875.22;5079193;28;20297;-74
2020/12/17 01:33:49;;;;;;;14.83;11.07;;;;;;;8.09;70.98;96877.97;5079353;28;20181;-75
2020/12/17 01:36:15;;;;;;;15.53;11.53;;;;;;;8.06;70.73;96879.09;5091778;28;20170;-75
2020/12/17 01:38:41;;;;;;;13.73;11.33;;;;;;;7.95;70.92;96879.25;5092148;28;20596;-74
2020/12/17 01:41:08;;;;;;;12.97;10.67;;;;;;;7.93;71.58;96883.81;5094060;28;20419;-74
2020/12/17 01:43:39;;;;;;;12.83;11.00;;;;;;;7.94;70.75;96881.06;5087286;28;20429;-74
2020/12/17 01:46:05;;;;;;;15.83;11.47;;;;;;;7.92;71.07;96892.63;5095818;28;20419;-75
2020/12/17 01:48:32;;;;;;;13.73;11.37;;;;;;;7.90;71.07;96894.53;5090681;28;20434;-74
2020/12/17 01:50:58;;;;;;;13.40;10.93;;;;;;;7.94;71.15;96890.69;5113619;28;20474;-74
2020/12/17 01:53:23;;;;;;;13.53;10.90;;;;;;;7.91;71.31;96896.19;5095171;28;20423;-74
2020/12/17 01:55:53;;;;;;;16.00;11.27;;;;;;;7.89;71.27;96892.91;5113286;28;20204;-74
2020/12/17 01:58:22;;;;;;;12.80;10.40;;;;;;;7.89;70.82;96895.50;5077665;28;20652;-74
2020/12/17 02:00:52;;;;;;;12.93;11.00;;;;;;;7.82;70.79;96890.84;5112220;28;20458;-74
2020/12/17 02:03:18;;;;;;;14.07;10.80;;;;;;;7.86;71.00;96906.22;5113611;28;20419;-74
2020/12/17 02:05:44;;;;;;;12.90;10.30;;;;;;;7.84;70.96;96901.97;5113754;28;20457;-74
2020/12/17 02:08:11;;;;;;;12.87;10.47;;;;;;;7.83;70.89;96902.13;5095134;28;20172;-75
2020/12/17 02:10:37;;;;;;;13.20;10.23;;;;;;;7.80;71.34;96905.00;5111785;28;20465;-74
2020/12/17 02:13:03;;;;;;;12.73;10.53;;;;;;;7.82;70.85;96911.72;5112994;28;20596;-75
2020/12/17 02:15:28;;;;;;;12.80;10.87;;;;;;;7.82;70.94;96913.50;5094933;28;20727;-75
2020/12/17 02:17:54;;;;;;;15.90;10.57;;;;;;;7.79;70.74;96905.97;5106352;28;20241;-74
2020/12/17 02:20:20;;;;;;;15.30;11.03;;;;;;;7.75;71.23;96915.88;5093786;28;20173;-73
2020/12/17 02:22:45;;;;;;;14.47;10.87;;;;;;;7.78;70.54;96918.19;5111928;28;20647;-75
2020/12/17 02:25:13;;;;;;;11.37;9.70;;;;;;;7.78;70.18;96907.75;5094966;28;20196;-75
2020/12/17 02:27:39;;;;;;;12.63;10.00;;;;;;;7.74;70.44;96914.22;5073471;28;20267;-74
2020/12/17 02:30:07;;;;;;;11.70;10.07;;;;;;;7.72;70.34;96916.13;5112647;28;20458;-75
2020/12/17 02:32:33;;;;;;;15.20;9.90;;;;;;;7.68;70.87;96912.19;5094373;28;20421;-74
2020/12/17 02:34:58;;;;;;;10.43;9.27;;;;;;;7.65;71.05;96912.47;5111884;28;20439;-74
2020/12/17 02:37:24;;;;;;;13.43;10.50;;;;;;;7.66;70.67;96914.09;5093522;28;20504;-74
2020/12/17 02:39:50;;;;;;;11.80;10.00;;;;;;;7.67;70.38;96911.34;5094398;28;20534;-74
2020/12/17 02:42:16;;;;;;;12.80;9.87;;;;;;;7.65;70.48;96917.69;5112389;28;20185;-74
2020/12/17 02:44:41;;;;;;;12.37;10.10;;;;;;;7.66;70.38;96906.28;5094482;28;20214;-75
2020/12/17 02:47:07;;;;;;;11.70;9.80;;;;;;;7.60;70.31;96915.50;5088635;28;20247;-74
2020/12/17 02:49:33;;;;;;;12.37;10.17;;;;;;;7.59;70.39;96907.78;5112477;28;20200;-75
2020/12/17 02:51:58;;;;;;;16.57;10.07;;;;;;;7.56;70.62;96908.09;5093947;28;20488;-74
2020/12/17 02:54:24;;;;;;;12.40;10.13;;;;;;;7.51;70.74;96898.91;5110771;28;20227;-74
2020/12/17 02:56:50;;;;;;;11.20;9.30;;;;;;;7.54;70.29;96900.41;5093581;28;20181;-76
2020/12/17 02:59:15;;;;;;;12.97;9.87;;;;;;;7.49;70.66;96898.22;5094039;28;20185;-75
2020/12/17 03:01:41;;;;;;;13.67;10.20;;;;;;;7.35;72.66;96901.25;5106911;28;20177;-74
2020/12/17 03:04:07;;;;;;;12.77;10.30;;;;;;;7.53;72.06;96902.19;5093979;28;20193;-74
2020/12/17 03:06:32;;;;;;;13.80;10.50;;;;;;;7.58;71.84;96907.00;5112206;28;20531;-74
2020/12/17 03:08:58;;;;;;;14.87;10.87;;;;;;;7.63;71.45;96906.56;5103878;28;20182;-74
2020/12/17 03:11:24;;;;;;;14.13;10.77;;;;;;;7.67;71.50;96911.34;5093021;28;20250;-74
2020/12/17 03:13:50;;;;;;;13.53;11.03;;;;;;;7.74;71.58;96910.81;5093023;28;20185;-75
2020/12/17 03:16:16;;;;;;;13.90;10.20;;;;;;;7.77;71.31;96919.16;5112912;28;20668;-73
2020/12/17 03:18:42;;;;;;;14.80;11.30;;;;;;;7.78;71.53;96914.75;5071320;28;20264;-74
2020/12/17 03:21:07;;;;;;;14.83;11.07;;;;;;;7.80;70.82;96908.44;5093892;28;20502;-74
2020/12/17 03:23:33;;;;;;;15.17;10.93;;;;;;;7.77;70.53;96913.09;5110722;28;20188;-74
2020/12/17 03:25:59;;;;;;;15.47;10.97;;;;;;;7.73;70.91;96920.41;5111829;28;20242;-74
2020/12/17 03:28:25;;;;;;;13.50;10.87;;;;;;;7.76;70.58;96912.28;5106699;28;20302;-75
2020/12/17 03:30:51;;;;;;;12.80;10.33;;;;;;;7.72;70.86;96913.53;5110197;28;20221;-74
2020/12/17 03:33:16;;;;;;;16.53;11.00;;;;;;;7.74;70.71;96916.03;5093102;28;20689;-75
2020/12/17 03:35:42;;;;;;;17.53;11.50;;;;;;;7.69;70.52;96914.66;5093560;28;20210;-74
2020/12/17 03:38:08;;;;;;;15.00;11.20;;;;;;;7.67;70.92;96913.16;5093337;28;20254;-74
2020/12/17 03:40:34;;;;;;;14.87;11.00;;;;;;;7.65;70.25;96918.50;5111527;28;20173;-74
2020/12/17 03:42:59;;;;;;;14.93;11.03;;;;;;;7.49;70.81;96916.47;5093598;28;20189;-76
2020/12/17 03:45:25;;;;;;;13.73;10.67;;;;;;;7.52;70.65;96915.34;5103512;28;20204;-74
2020/12/17 03:47:51;;;;;;;13.10;10.60;;;;;;;7.47;70.00;96920.19;5086802;28;20199;-74
2020/12/17 03:50:17;;;;;;;13.40;10.67;;;;;;;7.44;70.24;96916.06;5091897;28;20515;-74
2020/12/17 03:52:44;;;;;;;15.23;11.10;;;;;;;7.44;70.04;96923.88;5111480;28;20205;-74
2020/12/17 03:55:10;;;;;;;14.10;10.80;;;;;;;7.37;70.40;96921.00;5077258;28;20520;-74
2020/12/17 03:57:35;;;;;;;14.30;11.93;;;;;;;7.34;70.17;96926.50;5103774;28;21031;-74
2020/12/17 04:00:01;;;;;;;16.00;11.37;;;;;;;7.27;69.98;96925.41;5112155;28;20181;-75
2020/12/17 04:02:27;;;;;;;14.43;10.90;;;;;;;7.29;70.21;96922.69;5106801;28;20181;-73
2020/12/17 04:04:53;;;;;;;16.67;12.10;;;;;;;7.26;69.86;96922.94;5102964;28;20888;-75
2020/12/17 04:07:19;;;;;;;13.60;10.63;;;;;;;7.22;70.00;96920.59;5111161;28;20191;-75
2020/12/17 04:09:45;;;;;;;17.50;12.00;;;;;;;7.21;70.22;96921.56;5092734;28;20961;-75
2020/12/17 04:12:10;;;;;;;17.40;12.80;;;;;;;7.16;70.44;96918.56;5094472;28;20181;-76
2020/12/17 04:14:36;;;;;;;17.20;13.00;;;;;;;7.20;70.50;96921.72;5076829;28;20200;-74
2020/12/17 04:17:02;;;;;;;17.43;13.00;;;;;;;7.24;70.10;96920.50;5087997;28;20209;-73
2020/12/17 04:19:28;;;;;;;17.67;13.33;;;;;;;7.21;70.07;96921.56;5111426;28;20193;-75
2020/12/17 04:21:54;;;;;;;20.07;13.97;;;;;;;7.20;70.40;96919.91;5093196;28;20418;-74
2020/12/17 04:24:20;;;;;;;21.63;15.10;;;;;;;7.26;70.82;96925.56;5093130;28;20966;-74
2020/12/17 04:26:52;;;;;;;20.80;14.23;;;;;;;7.21;71.08;96928.56;5091014;28;20185;-74
2020/12/17 04:29:19;;;;;;;20.57;14.40;;;;;;;7.15;71.54;96921.28;5111166;28;20493;-75
2020/12/17 04:31:45;;;;;;;24.60;16.37;;;;;;;7.04;72.71;96925.69;5111087;28;20481;-75
2020/12/17 04:34:11;;;;;;;20.80;15.10;;;;;;;7.28;72.43;96931.47;5092825;28;20491;-76
2020/12/17 04:36:37;;;;;;;23.03;15.30;;;;;;;7.22;72.14;96923.22;5076166;28;20505;-74
2020/12/17 04:39:04;;;;;;;23.40;16.80;;;;;;;7.36;71.55;96929.81;5092971;28;20703;-74
2020/12/17 04:41:31;;;;;;;20.87;15.23;;;;;;;7.41;71.48;96937.22;5067493;28;20514;-75
2020/12/17 04:43:57;;;;;;;22.73;14.70;;;;;;;7.31;72.20;96925.97;5087736;28;20965;-74
2020/12/17 04:46:25;;;;;;;19.57;14.03;;;;;;;7.37;71.83;96921.00;5112095;28;20800;-75
2020/12/17 04:48:52;;;;;;;18.90;14.50;;;;;;;7.36;72.14;96928.97;5091388;28;20500;-75
2020/12/17 04:51:19;;;;;;;21.83;15.80;;;;;;;7.34;72.02;96923.06;5086658;28;20850;-74
2020/12/17 04:53:47;;;;;;;22.10;15.97;;;;;;;7.42;71.99;96922.38;5114185;28;20721;-73
2020/12/17 04:56:15;;;;;;;24.03;16.20;;;;;;;7.40;71.91;96917.31;5097440;28;20430;-74
2020/12/17 04:58:49;;;;;;;22.80;15.50;;;;;;;7.34;72.20;96917.84;5101068;28;20423;-74
2020/12/17 05:01:17;;;;;;;22.23;15.13;;;;;;;7.49;71.63;96920.88;5099536;28;20858;-74
2020/12/17 05:03:48;;;;;;;23.70;15.10;;;;;;;7.40;71.42;96914.69;5095773;28;20882;-74
2020/12/17 05:06:22;;;;;;;23.53;16.20;;;;;;;7.51;71.37;96916.31;5088286;28;20419;-74
2020/12/17 05:08:49;;;;;;;20.87;15.03;;;;;;;7.48;71.42;96917.44;5096141;28;20433;-73
2020/12/17 05:11:15;;;;;;;20.23;14.73;;;;;;;7.50;71.37;96922.50;5113860;28;20458;-75
2020/12/17 05:13:41;;;;;;;19.47;15.20;;;;;;;7.54;71.60;96926.47;5093858;28;20825;-74
2020/12/17 05:16:07;;;;;;;18.90;14.00;;;;;;;7.54;71.17;96936.91;5097033;28;20419;-75
2020/12/17 05:18:32;;;;;;;22.50;14.37;;;;;;;7.52;71.42;96931.00;5115304;28;20793;-75
2020/12/17 05:21:00;;;;;;;21.07;14.83;;;;;;;7.50;70.62;96948.56;5112077;28;20684;-74
2020/12/17 05:23:26;;;;;;;19.97;14.70;;;;;;;7.39;71.70;96944.34;5063964;28;20192;-75
2020/12/17 05:25:52;;;;;;;17.77;13.47;;;;;;;7.49;71.33;96947.75;5097938;28;20808;-75
2020/12/17 05:28:18;;;;;;;19.57;13.57;;;;;;;7.49;71.11;96955.59;5097460;28;20185;-75
2020/12/17 05:30:44;;;;;;;20.90;13.87;;;;;;;7.44;71.02;96968.19;5115817;28;20458;-74
2020/12/17 05:33:10;;;;;;;20.60;14.60;;;;;;;7.50;71.13;96962.44;5097147;28;20427;-74
2020/12/17 05:35:38;;;;;;;20.97;13.53;;;;;;;7.37;71.26;96967.13;5095650;28;20212;-74
2020/12/17 05:38:06;;;;;;;20.30;14.60;;;;;;;7.58;70.56;96968.75;5095437;28;20189;-74
2020/12/17 05:40:42;;;;;;;19.67;13.77;;;;;;;7.50;70.21;96962.44;5113639;28;20422;-73
2020/12/17 05:43:09;;;;;;;20.10;14.20;;;;;;;7.34;71.09;96956.97;5095933;28;20505;-73
2020/12/17 05:45:36;;;;;;;18.33;13.60;;;;;;;7.31;71.28;96970.28;5095963;28;20487;-74
2020/12/17 05:48:28;;;;;;;17.20;12.30;;;;;;;7.22;71.30;96977.94;5095229;28;20529;-75
2020/12/17 05:50:55;;;;;;;15.20;11.50;;;;;;;7.25;70.64;96971.63;5088934;28;20471;-75
2020/12/17 05:53:26;;;;;;;17.10;10.90;;;;;;;7.36;70.42;96975.91;5113427;28;20775;-74
2020/12/17 05:56:00;;;;;;;20.30;11.67;;;;;;;7.46;69.76;96976.72;5113237;28;20443;-76
2020/12/17 05:58:41;;;;;;;14.00;10.50;;;;;;;7.36;69.54;96973.28;5113672;28;20464;-74
2020/12/17 06:01:15;;;;;;;12.40;9.57;;;;;;;7.40;69.41;96972.06;5094053;28;20429;-73
2020/12/17 06:03:41;;;;;;;19.97;10.27;;;;;;;7.05;70.14;96983.84;5088163;28;20439;-74
2020/12/17 06:06:08;;;;;;;12.80;9.67;;;;;;;7.23;69.40;96974.38;5078361;28;20434;-74
2020/12/17 06:08:38;;;;;;;12.17;9.17;;;;;;;7.13;69.55;96981.38;5078541;28;20434;-74
2020/12/17 06:11:14;;;;;;;13.07;9.50;;;;;;;7.17;69.19;96995.81;5112997;28;20554;-73
2020/12/17 06:13:42;;;;;;;15.70;8.73;;;;;;;7.13;69.03;96997.03;5094666;28;20462;-75
2020/12/17 06:16:10;;;;;;;12.90;8.40;;;;;;;7.16;68.94;97001.97;5112758;28;20902;-75
2020/12/17 06:18:55;;;;;;;11.37;9.10;;;;;;;7.17;69.12;97002.78;5077781;28;20782;-73
2020/12/17 06:21:25;;;;;;;12.90;9.30;;;;;;;7.35;68.32;97000.31;5098147;28;20469;-75
2020/12/17 06:23:58;;;;;;;9.73;8.30;;;;;;;7.04;69.46;97003.88;5112871;28;20492;-73
2020/12/17 06:26:24;;;;;;;12.57;9.23;;;;;;;6.99;69.63;97002.63;5095281;28;20427;-75
2020/12/17 06:28:51;;;;;;;8.40;7.50;;;;;;;7.06;69.23;97006.31;5094543;28;20936;-75
2020/12/17 06:31:26;;;;;;;11.40;7.47;;;;;;;6.98;69.72;97016.59;5094465;28;20463;-75
2020/12/17 06:33:56;;;;;;;8.00;6.70;;;;;;;7.18;69.33;97018.28;5076493;28;20431;-75
2020/12/17 06:36:28;;;;;;;8.07;6.30;;;;;;;7.41;68.20;97018.03;5090638;28;20435;-74
2020/12/17 06:38:54;;;;;;;7.70;5.60;;;;;;;7.30;67.86;97023.38;5091749;28;20427;-75
2020/12/17 06:41:23;;;;;;;9.73;6.07;;;;;;;7.57;67.48;97019.25;5092929;28;20500;-74
2020/12/17 06:43:49;;;;;;;5.90;5.17;;;;;;;7.60;67.20;97012.00;5055193;28;20424;-74
2020/12/17 06:46:36;;;;;;;8.03;5.30;;;;;;;7.67;67.05;97020.09;5092703;28;20423;-75
2020/12/17 06:49:04;;;;;;;8.07;5.43;;;;;;;7.81;66.16;97032.69;5093272;28;20427;-75
2020/12/17 06:51:37;;;;;;;7.10;5.80;;;;;;;7.90;66.33;97032.84;5084044;28;20474;-75
2020/12/17 06:54:07;;;;;;;6.20;5.40;;;;;;;7.67;66.63;97036.56;5099945;28;20453;-75
2020/12/17 06:56:37;;;;;;;6.17;5.27;;;;;;;7.84;66.27;97045.47;5092165;28;20424;-74
2020/12/17 06:59:17;;;;;;;4.87;4.37;;;;;;;7.59;67.39;97040.81;5101368;28;20426;-73
2020/12/17 07:01:43;;;;;;;5.70;4.97;;;;;;;7.61;66.76;97044.09;5104687;28;20411;-74
2020/12/17 07:04:09;;;;;;;8.87;4.97;;;;;;;7.64;66.60;97049.88;5081029;28;20519;-74
2020/12/17 07:06:34;;;;;;;9.60;4.83;;;;;;;7.72;66.34;97049.19;5111507;28;20542;-75
2020/12/17 07:09:00;;;;;;;7.17;5.33;;;;;;;7.80;66.06;97054.56;5110515;28;20797;-74
2020/12/17 07:11:39;;;;;;;5.80;4.47;;;;;;;7.80;65.86;97058.94;5112781;28;20235;-74
2020/12/17 07:14:10;;;;;;;6.47;4.40;;;;;;;7.79;66.29;97060.72;5112634;28;20192;-74
2020/12/17 07:16:37;;;;;;;5.80;5.20;;;;;;;7.65;66.37;97063.75;5106198;28;20507;-75
2020/12/17 07:19:28;;;;;;;4.60;4.10;;;;;;;7.47;67.22;97069.63;5111118;28;20453;-75
2020/12/17 07:22:10;;;;;;;4.43;4.03;;;;;;;7.59;66.36;97072.09;5113355;28;20411;-74
2020/12/17 07:24:56;;;;;;;4.67;4.17;;;;;;;7.56;67.26;97078.44;5115148;28;20439;-74
2020/12/17 07:27:24;;;;;;;6.13;4.10;;;;;;;7.78;66.34;97082.56;5093740;28;20423;-75
2020/12/17 07:29:51;;;;;;;7.40;4.53;;;;;;;7.62;67.24;97092.72;5081360;28;20476;-74
2020/12/17 07:32:42;;;;;;;5.20;3.80;;;;;;;7.75;65.88;97098.47;5108197;28;20451;-75
2020/12/17 07:35:08;;;;;;;4.40;4.00;;;;;;;7.76;66.55;97094.06;5062439;28;20939;-76
2020/12/17 07:37:57;;;;;;;3.97;3.67;;;;;;;7.69;66.76;97102.47;5115719;28;20419;-74
2020/12/17 07:40:33;;;;;;;4.93;4.43;;;;;;;7.72;66.59;97097.94;5067529;28;20173;-74
2020/12/17 07:43:04;;;;;;;4.97;4.00;;;;;;;7.81;66.27;97099.72;5115450;28;20422;-74
2020/12/17 07:45:45;;;;;;;5.33;3.93;;;;;;;7.82;65.86;97102.19;5090092;28;20745;-74
2020/12/17 07:48:54;;;;;;;4.30;3.90;;;;;;;7.91;66.26;97115.38;5097791;28;20481;-73
2020/12/17 07:51:20;;;;;;;4.60;4.20;;;;;;;7.97;65.50;97109.59;5082617;28;20438;-74
2020/12/17 07:53:47;;;;;;;6.17;5.03;;;;;;;7.89;65.68;97122.53;5111885;28;20502;-74
2020/12/17 07:56:13;;;;;;;5.87;4.00;;;;;;;7.87;65.96;97124.44;5113137;28;20256;-75
2020/12/17 07:58:40;;;;;;;4.63;4.00;;;;;;;7.75;65.82;97132.41;5113209;28;20423;-75
2020/12/17 08:01:10;;;;;;;5.73;3.97;;;;;;;7.89;65.29;97127.75;5111052;28;20419;-73
2020/12/17 08:03:40;;;;;;;5.10;4.27;;;;;;;7.80;65.48;97130.22;5102975;28;20509;-75
2020/12/17 08:06:10;;;;;;;5.70;4.57;;;;;;;8.08;65.14;97134.75;5084835;28;20414;-73
2020/12/17 08:08:37;;;;;;;5.43;4.70;;;;;;;8.09;65.14;97133.78;5111267;28;20480;-74
2020/12/17 08:11:07;;;;;;;5.37;4.80;;;;;;;7.84;65.04;97134.19;5110493;28;21034;-74
2020/12/17 08:13:33;;;;;;;6.77;4.70;;;;;;;8.11;65.63;97132.69;5110385;28;20426;-74
2020/12/17 08:15:59;;;;;;;4.83;4.20;;;;;;;8.24;64.60;97131.56;5112560;28;20438;-74
2020/12/17 08:18:30;;;;;;;5.63;5.00;;;;;;;8.19;64.81;97133.78;5111267;28;20567;-74
2020/12/17 08:21:14;;;;;;;5.33;4.70;;;;;;;8.13;65.29;97125.53;5114505;28;20418;-74
2020/12/17 08:23:42;;;;;;;12.17;4.80;;;;;;;8.14;65.39;97132.41;5080831;28;20492;-74
2020/12/17 08:26:10;;;;;;;5.13;4.47;;;;;;;8.31;65.32;97145.72;5098046;28;20427;-74
2020/12/17 08:28:41;;;;;;;5.40;4.37;;;;;;;8.47;64.53;97139.91;5080204;28;20415;-75
2020/12/17 08:31:18;;;;;;;4.60;4.20;;;;;;;8.49;64.87;97145.88;5097400;28;20486;-74
2020/12/17 08:33:47;;;;;;;4.97;4.07;;;;;;;8.54;64.93;97148.84;5072167;28;20429;-75
2020/12/17 08:36:16;;;;;;;6.43;4.40;;;;;;;8.68;64.28;97134.53;5082232;28;20414;-75
2020/12/17 08:38:59;;;;;;;4.77;4.20;;;;;;;8.84;64.10;97133.09;5115155;28;20863;-74
2020/12/17 08:41:30;;;;;;;4.43;4.03;;;;;;;8.92;64.40;97133.22;5097487;28;20430;-75
2020/12/17 08:44:05;;;;;;;4.97;4.10;;;;;;;9.06;64.05;97145.00;5107523;28;20426;-76
2020/12/17 08:46:36;;;;;;;5.10;4.17;;;;;;;9.04;63.14;97145.16;5098393;28;20813;-75
2020/12/17 08:49:04;;;;;;;5.57;4.37;;;;;;;9.01;63.99;97152.47;5097664;28;20421;-75
2020/12/17 08:51:30;;;;;;;3.80;3.40;;;;;;;9.05;63.92;97151.19;5115502;28;20501;-75
2020/12/17 08:53:56;;;;;;;4.40;3.90;;;;;;;9.14;63.70;97144.28;5097311;28;20430;-75
2020/12/17 08:56:22;;;;;;;5.10;4.37;;;;;;;9.28;63.25;97153.41;5115291;28;20475;-75
2020/12/17 08:59:05;;;;;;;5.50;4.07;;;;;;;9.24;63.72;97149.47;5115575;28;20210;-74
2020/12/17 09:01:35;;;;;;;6.00;3.73;;;;;;;9.14;64.00;97149.50;5098179;28;20415;-74
2020/12/17 09:04:08;;;;;;;5.90;3.80;;;;;;;9.23;63.95;97161.69;5092909;28;20550;-75
2020/12/17 09:06:34;;;;;;;4.00;3.60;;;;;;;9.24;63.49;97154.69;5106875;28;20422;-75
2020/12/17 09:09:11;;;;;;;7.67;3.70;;;;;;;9.41;63.08;97166.97;5104791;28;20584;-75
2020/12/17 09:11:37;;;;;;;6.43;3.60;;;;;;;9.37;62.81;97163.84;5115784;28;20450;-74
2020/12/17 09:14:08;;;;;;;2.60;2.40;;;;;;;10.05;69.77;97180.06;5068863;28;20466;-71
2020/12/17 09:16:35;;;;;;;3.43;2.53;;;;;;;12.54;65.95;97171.53;5067951;28;20423;-72
2020/12/17 09:19:08;;;;;;;5.10;3.20;;;;;;;13.96;58.14;97176.97;5097227;28;20420;-72
2020/12/17 09:22:00;;;;;;;3.53;2.53;;;;;;;15.54;52.22;97176.34;5093246;28;20424;-72
2020/12/17 09:24:33;;;;;;;2.80;2.47;;;;;;;15.42;48.40;97178.63;5088769;28;20466;-73
2020/12/17 09:27:20;;;;;;;3.00;2.80;;;;;;;14.73;48.55;97182.34;5098546;28;20421;-74
2020/12/17 09:30:10;;;;;;;5.33;2.67;;;;;;;16.20;48.14;97177.28;5095601;28;20430;-73
2020/12/17 09:32:41;;;;;;;3.53;2.53;;;;;;;17.06;44.44;97186.97;5099394;28;20432;-72
2020/12/17 09:35:11;;;;;;;5.17;2.40;;;;;;;17.46;42.95;97181.84;5078950;28;20520;-72
2020/12/17 09:37:41;;;;;;;5.63;3.77;;;;;;;16.08;44.38;97190.16;5107261;28;20447;-71
2020/12/17 09:40:09;;;;;;;4.93;3.37;;;;;;;16.20;46.52;97190.50;5095377;28;20882;-72
2020/12/17 09:42:35;;;;;;;4.47;3.20;;;;;;;16.61;42.66;97191.69;5096428;28;20411;-71
2020/12/17 09:45:17;;;;;;;4.23;2.97;;;;;;;17.27;43.62;97182.59;5114993;28;20464;-72
2020/12/17 09:47:43;;;;;;;4.23;3.20;;;;;;;16.10;42.21;97188.16;5099315;28;20910;-75
2020/12/17 09:50:14;;;;;;;4.77;3.40;;;;;;;14.61;45.73;97204.84;5112282;28;20485;-74
2020/12/17 09:52:40;;;;;;;4.20;3.40;;;;;;;13.60;48.24;97195.94;5116046;28;20943;-75
2020/12/17 09:55:06;;;;;;;5.10;3.53;;;;;;;12.71;50.91;97202.09;5113400;28;20527;-73
2020/12/17 09:57:43;;;;;;;4.27;3.70;;;;;;;11.98;53.55;97209.75;5086364;28;20188;-72
2020/12/17 10:00:13;;;;;;;7.13;3.60;;;;;;;11.56;55.63;97209.75;5090551;28;20510;-74
2020/12/17 10:02:43;;;;;;;6.07;3.80;;;;;;;11.65;55.87;97204.38;5082368;28;20431;-75
2020/12/17 10:05:11;;;;;;;5.20;4.03;;;;;;;11.48;56.25;97219.22;5098172;28;20534;-77
2020/12/17 10:07:36;;;;;;;8.00;3.70;;;;;;;11.47;56.76;97230.72;5112826;28;20913;-73
2020/12/17 10:10:03;;;;;;;4.03;3.63;;;;;;;11.58;56.55;97215.69;5098495;28;20465;-74
2020/12/17 10:12:29;;;;;;;5.50;4.00;;;;;;;11.47;57.18;97222.84;5080568;28;20257;-74
2020/12/17 10:14:55;;;;;;;4.30;3.90;;;;;;;11.40;57.63;97216.59;5115855;28;20459;-74
2020/12/17 10:17:20;;;;;;;5.90;4.03;;;;;;;11.65;56.95;97214.06;5116498;28;20181;-74
2020/12/17 10:19:46;;;;;;;4.37;3.97;;;;;;;11.68;57.38;97211.94;5096966;28;20189;-74
2020/12/17 10:22:12;;;;;;;6.83;4.00;;;;;;;11.65;57.61;97214.91;5094123;28;20189;-74
2020/12/17 10:24:38;;;;;;;6.07;4.20;;;;;;;11.47;57.92;97217.59;5086107;28;20209;-75
2020/12/17 10:27:03;;;;;;;6.20;3.77;;;;;;;11.57;58.25;97221.91;5073021;28;20660;-74
2020/12/17 10:29:29;;;;;;;4.30;3.60;;;;;;;11.73;57.83;97221.94;5067329;28;20709;-74
2020/12/17 10:31:56;;;;;;;5.23;3.60;;;;;;;11.36;58.63;97218.69;5072934;28;20209;-76
2020/12/17 10:34:22;;;;;;;5.50;4.00;;;;;;;11.47;58.26;97203.66;5078904;28;20452;-75
2020/12/17 10:36:48;;;;;;;6.87;4.17;;;;;;;11.41;58.42;97220.84;5110798;28;20462;-75
2020/12/17 10:39:14;;;;;;;4.83;3.83;;;;;;;11.61;58.52;97208.31;5107178;28;20446;-76
2020/12/17 10:41:40;;;;;;;3.80;3.50;;;;;;;11.70;58.01;97214.41;5114997;28;20184;-74
2020/12/17 10:44:08;;;;;;;4.37;3.70;;;;;;;11.75;58.01;97216.56;5092057;28;21769;-75
2020/12/17 10:46:35;;;;;;;8.17;3.57;;;;;;;11.84;57.89;97218.22;5084186;28;20524;-76
2020/12/17 10:49:03;;;;;;;8.43;4.00;;;;;;;11.61;58.28;97216.19;5089295;28;20431;-73
2020/12/17 10:51:29;;;;;;;5.20;3.97;;;;;;;11.72;57.99;97215.06;5087344;28;20471;-75
2020/12/17 10:53:54;;;;;;;4.33;3.93;;;;;;;11.68;58.04;97221.63;5071034;28;20693;-74
2020/12/17 10:56:20;;;;;;;4.80;4.00;;;;;;;12.02;57.55;97228.63;5087102;28;20182;-75
2020/12/17 10:58:49;;;;;;;3.67;3.27;;;;;;;11.90;57.54;97228.09;5068229;28;20613;-76
2020/12/17 11:01:18;;;;;;;6.80;4.60;;;;;;;12.11;57.33;97219.78;5087929;28;20181;-76
2020/12/17 11:03:44;;;;;;;5.63;4.30;;;;;;;12.26;56.81;97233.13;5073573;28;20417;-75
2020/12/17 11:06:17;;;;;;;4.50;3.73;;;;;;;12.11;57.22;97239.97;5092058;28;20488;-76
2020/12/17 11:08:43;;;;;;;7.80;3.63;;;;;;;12.11;57.63;97246.03;5092838;28;20182;-75
2020/12/17 11:11:09;;;;;;;4.17;3.60;;;;;;;12.40;56.85;97234.28;5073016;28;20511;-73
2020/12/17 11:13:35;;;;;;;3.83;3.50;;;;;;;12.47;56.23;97234.44;5082559;28;20650;-74
2020/12/17 11:16:00;;;;;;;3.47;3.17;;;;;;;12.47;57.46;97229.19;5092196;28;20452;-74
2020/12/17 11:18:26;;;;;;;5.60;3.87;;;;;;;12.71;56.32;97225.75;5064550;28;20193;-76
2020/12/17 11:20:52;;;;;;;4.20;3.80;;;;;;;12.92;56.51;97224.41;5044144;28;20671;-77
2020/12/17 11:23:18;;;;;;;6.53;3.80;;;;;;;12.80;56.36;97220.47;5040535;28;20510;-76
2020/12/17 11:25:43;;;;;;;4.90;3.80;;;;;;;12.90;56.33;97215.84;5065403;28;20196;-77
2020/12/17 11:28:09;;;;;;;5.20;3.80;;;;;;;12.76;56.75;97227.88;5100856;28;20200;-75
2020/12/17 11:30:36;;;;;;;6.00;3.90;;;;;;;12.79;56.57;97237.22;5089446;28;20208;-75
2020/12/17 11:33:03;;;;;;;6.30;3.97;;;;;;;12.72;56.64;97232.66;5056282;28;20657;-74
2020/12/17 11:35:29;;;;;;;5.73;3.60;;;;;;;12.71;56.55;97230.16;5076808;28;20454;-75
2020/12/17 11:37:55;;;;;;;6.90;4.30;;;;;;;12.72;56.33;97216.03;5090729;28;20938;-76